Time;durP1;ratioP1;P1;durP2;ratioP2;P2;SDS_P1;SDS_P2;PMS_P1;PMS_P2;Temp;Humidity;BMP_temperature;BMP_pressure;BME280_temperature;BME280_humidity;BME280_pressure;Samples;Min_cycle;Max_cycle;Signal;HPM_P1;HPM_P2
2021/05/03 00:00:11;;;;;;;0.38;0.28;;;4.70;69.80;;;;;;5115895;28;20046;-73
2021/05/03 00:02:37;;;;;;;0.28;0.20;;;4.70;69.80;;;;;;5097681;28;20046;-73
2021/05/03 00:05:05;;;;;;;0.30;0.20;;;4.70;69.80;;;;;;5115804;28;20043;-73
2021/05/03 00:07:31;;;;;;;0.10;0.10;;;4.70;69.90;;;;;;5116221;28;20467;-73
2021/05/03 00:09:57;;;;;;;0.52;0.20;;;4.70;69.90;;;;;;5079487;28;20138;-73
2021/05/03 00:12:23;;;;;;;0.20;0.20;;;4.70;70.00;;;;;;5115693;28;20062;-73
2021/05/03 00:14:50;;;;;;;0.15;0.13;;;4.70;70.00;;;;;;5115688;28;20122;-72
2021/05/03 00:17:17;;;;;;;0.20;0.20;;;4.70;70.70;;;;;;5097552;28;20393;-73
2021/05/03 00:19:43;;;;;;;0.45;0.20;;;4.70;70.20;;;;;;5080371;28;20400;-74
2021/05/03 00:22:09;;;;;;;0.20;0.20;;;4.60;70.10;;;;;;5080485;28;20051;-73
2021/05/03 00:24:34;;;;;;;0.10;0.10;;;4.60;70.30;;;;;;5080072;28;20400;-73
2021/05/03 00:27:00;;;;;;;0.17;0.17;;;4.60;70.40;;;;;;5116042;28;20050;-73
2021/05/03 00:29:26;;;;;;;0.20;0.20;;;4.60;70.40;;;;;;5115655;28;20067;-73
2021/05/03 00:31:51;;;;;;;0.20;0.20;;;4.60;70.40;;;;;;5097150;28;20047;-73
2021/05/03 00:34:17;;;;;;;0.22;0.17;;;4.60;70.50;;;;;;5097012;28;20044;-72
2021/05/03 00:36:43;;;;;;;0.15;0.15;;;4.60;70.50;;;;;;5095563;28;20044;-72
2021/05/03 00:39:09;;;;;;;0.13;0.13;;;4.60;70.60;;;;;;5094856;28;20093;-72
2021/05/03 00:41:34;;;;;;;0.10;0.10;;;4.60;70.70;;;;;;5115163;28;20051;-73
2021/05/03 00:44:00;;;;;;;0.20;0.20;;;4.50;70.70;;;;;;5115322;28;20056;-72
2021/05/03 00:46:26;;;;;;;0.35;0.35;;;4.60;70.80;;;;;;5115591;28;20035;-72
2021/05/03 00:48:52;;;;;;;0.45;0.17;;;4.50;70.90;;;;;;5115175;28;20044;-72
2021/05/03 00:51:18;;;;;;;0.20;0.20;;;4.50;70.90;;;;;;5115693;28;20040;-72
2021/05/03 00:53:44;;;;;;;0.57;0.20;;;4.40;71.00;;;;;;5095581;28;20135;-72
2021/05/03 00:56:09;;;;;;;0.20;0.20;;;4.50;71.00;;;;;;5115475;28;20039;-73
2021/05/03 00:58:36;;;;;;;0.25;0.20;;;4.40;71.00;;;;;;5114914;28;20054;-72
2021/05/03 01:01:02;;;;;;;0.10;0.10;;;4.40;71.10;;;;;;5078593;28;20036;-73
2021/05/03 01:03:28;;;;;;;0.17;0.10;;;4.40;71.20;;;;;;5096595;28;20039;-73
2021/05/03 01:05:54;;;;;;;0.13;0.10;;;4.40;71.20;;;;;;5114858;28;20043;-73
2021/05/03 01:08:20;;;;;;;0.20;0.20;;;4.40;71.30;;;;;;5095559;28;20393;-73
2021/05/03 01:10:45;;;;;;;0.20;0.20;;;4.30;71.20;;;;;;5114546;28;20114;-73
2021/05/03 01:13:12;;;;;;;0.20;0.20;;;4.30;71.30;;;;;;5096956;28;20039;-73
2021/05/03 01:15:37;;;;;;;0.17;0.17;;;4.30;71.30;;;;;;5115016;28;20046;-73
2021/05/03 01:18:05;;;;;;;0.20;0.20;;;4.40;71.40;;;;;;5096311;28;20044;-73
2021/05/03 01:20:33;;;;;;;0.10;0.10;;;4.30;71.50;;;;;;5094740;28;20032;-73
2021/05/03 01:23:00;;;;;;;0.10;0.10;;;4.30;71.50;;;;;;5114476;28;20043;-73
2021/05/03 01:25:30;;;;;;;0.77;0.30;;;4.30;71.50;;;;;;5114392;28;20120;-73
2021/05/03 01:27:56;;;;;;;0.15;0.15;;;4.30;71.70;;;;;;5096495;28;20043;-73
2021/05/03 01:30:31;;;;;;;0.20;0.20;;;4.30;71.70;;;;;;5114444;28;20489;-72
2021/05/03 01:32:58;;;;;;;0.15;0.15;;;4.30;71.80;;;;;;5096706;28;20050;-74
2021/05/03 01:35:24;;;;;;;0.28;0.28;;;4.30;71.80;;;;;;5095956;28;21450;-73
2021/05/03 01:37:52;;;;;;;0.20;0.20;;;4.30;71.80;;;;;;5096380;28;20059;-74
2021/05/03 01:40:17;;;;;;;0.20;0.20;;;4.30;71.90;;;;;;5094353;28;20032;-73
2021/05/03 01:42:43;;;;;;;0.60;0.30;;;4.30;71.90;;;;;;5114553;28;20123;-74
2021/05/03 01:45:10;;;;;;;0.20;0.20;;;4.20;71.90;;;;;;5096511;28;20350;-73
2021/05/03 01:47:36;;;;;;;0.43;0.30;;;4.30;72.00;;;;;;5095059;28;20044;-74
2021/05/03 01:50:02;;;;;;;0.28;0.28;;;4.20;72.00;;;;;;5114643;28;20374;-73
2021/05/03 01:52:29;;;;;;;0.30;0.30;;;4.20;72.00;;;;;;5079210;28;20117;-73
2021/05/03 01:54:55;;;;;;;0.20;0.20;;;4.20;72.10;;;;;;5095935;28;20489;-74
2021/05/03 01:57:22;;;;;;;0.65;0.20;;;4.10;72.70;;;;;;5114655;28;20157;-73
2021/05/03 01:59:51;;;;;;;0.20;0.20;;;4.20;72.20;;;;;;5079288;28;20040;-73
2021/05/03 02:02:17;;;;;;;0.40;0.40;;;4.20;72.40;;;;;;5094010;28;20043;-73
2021/05/03 02:04:43;;;;;;;0.20;0.20;;;4.10;72.30;;;;;;5095374;28;20035;-73
2021/05/03 02:07:09;;;;;;;0.25;0.20;;;4.20;72.40;;;;;;5077826;28;20046;-73
2021/05/03 02:09:34;;;;;;;0.30;0.25;;;4.10;72.40;;;;;;5096329;28;20384;-73
2021/05/03 02:12:00;;;;;;;0.40;0.30;;;4.10;72.50;;;;;;5095992;28;20093;-73
2021/05/03 02:14:26;;;;;;;0.20;0.17;;;4.10;72.60;;;;;;5113815;28;20036;-73
2021/05/03 02:16:52;;;;;;;0.32;0.30;;;4.00;72.60;;;;;;5095319;28;20382;-73
2021/05/03 02:19:17;;;;;;;0.40;0.40;;;4.00;72.70;;;;;;5113725;28;20039;-73
2021/05/03 02:21:43;;;;;;;0.40;0.35;;;4.00;73.40;;;;;;5093806;28;20055;-73
2021/05/03 02:24:09;;;;;;;0.30;0.25;;;4.00;72.90;;;;;;5077294;28;20036;-74
2021/05/03 02:26:35;;;;;;;0.20;0.20;;;3.90;72.90;;;;;;5113593;28;20122;-73
2021/05/03 02:29:00;;;;;;;0.50;0.38;;;3.90;72.90;;;;;;5113694;28;20035;-74
2021/05/03 02:31:26;;;;;;;0.52;0.52;;;3.90;72.90;;;;;;5113565;28;20043;-73
2021/05/03 02:33:52;;;;;;;0.20;0.20;;;3.90;72.90;;;;;;5095300;28;20039;-73
2021/05/03 02:36:19;;;;;;;0.30;0.30;;;3.90;73.00;;;;;;5095251;28;20396;-73
2021/05/03 02:38:44;;;;;;;0.30;0.30;;;3.90;73.00;;;;;;5113647;28;20047;-73
2021/05/03 02:41:10;;;;;;;0.20;0.20;;;3.90;72.90;;;;;;5113711;28;20122;-73
2021/05/03 02:43:36;;;;;;;0.30;0.30;;;3.90;73.00;;;;;;5093219;28;20066;-73
2021/05/03 02:46:02;;;;;;;0.30;0.30;;;3.90;73.00;;;;;;5113205;28;20036;-73
2021/05/03 02:48:27;;;;;;;0.38;0.30;;;3.90;73.00;;;;;;5078216;28;20378;-73
2021/05/03 02:50:53;;;;;;;0.20;0.20;;;3.90;73.00;;;;;;5113340;28;20039;-73
2021/05/03 02:53:19;;;;;;;0.20;0.20;;;3.90;73.00;;;;;;5113304;28;20466;-73
2021/05/03 02:55:44;;;;;;;0.15;0.15;;;3.90;73.00;;;;;;5095378;28;20043;-73
2021/05/03 02:58:10;;;;;;;0.28;0.20;;;4.00;73.10;;;;;;5113124;28;20046;-73
2021/05/03 03:00:36;;;;;;;0.52;0.38;;;4.00;73.10;;;;;;5094885;28;20044;-73
2021/05/03 03:03:04;;;;;;;0.28;0.22;;;4.00;73.10;;;;;;5112880;28;20039;-73
2021/05/03 03:05:30;;;;;;;0.45;0.30;;;4.00;73.10;;;;;;5112985;28;20051;-73
2021/05/03 03:08:01;;;;;;;0.10;0.10;;;4.00;73.10;;;;;;5112943;28;20053;-74
2021/05/03 03:10:28;;;;;;;0.20;0.20;;;4.00;73.80;;;;;;5112804;28;20173;-73
2021/05/03 03:12:54;;;;;;;0.25;0.20;;;3.90;73.20;;;;;;5094570;28;20043;-73
2021/05/03 03:15:22;;;;;;;0.20;0.20;;;3.90;73.20;;;;;;5094757;28;20111;-74
2021/05/03 03:17:50;;;;;;;0.20;0.20;;;4.00;73.30;;;;;;5094302;28;20039;-73
2021/05/03 03:20:18;;;;;;;0.68;0.38;;;3.90;73.30;;;;;;5112719;28;20108;-74
2021/05/03 03:22:44;;;;;;;0.73;0.32;;;3.90;73.30;;;;;;5093091;28;20123;-73
2021/05/03 03:25:10;;;;;;;0.50;0.45;;;3.90;73.50;;;;;;5113107;28;20028;-73
2021/05/03 03:27:36;;;;;;;0.47;0.30;;;3.90;73.50;;;;;;5112790;28;20101;-73
2021/05/03 03:30:04;;;;;;;0.70;0.40;;;3.90;73.60;;;;;;5094940;28;20500;-73
2021/05/03 03:32:30;;;;;;;0.60;0.40;;;3.90;73.60;;;;;;5094287;28;20036;-73
2021/05/03 03:34:56;;;;;;;0.45;0.30;;;3.90;73.60;;;;;;5060921;28;20042;-73
2021/05/03 03:37:22;;;;;;;0.65;0.40;;;3.80;73.60;;;;;;5112546;28;20039;-73
2021/05/03 03:39:47;;;;;;;0.30;0.30;;;3.80;73.70;;;;;;5094364;28;20054;-73
2021/05/03 03:42:13;;;;;;;0.20;0.20;;;3.80;73.80;;;;;;5077558;28;20032;-73
2021/05/03 03:44:39;;;;;;;0.20;0.20;;;3.80;73.90;;;;;;5112446;28;20032;-73
2021/05/03 03:47:04;;;;;;;0.30;0.30;;;3.80;73.90;;;;;;5094248;28;20051;-73
2021/05/03 03:49:30;;;;;;;0.40;0.35;;;3.70;73.90;;;;;;5112777;28;20127;-73
2021/05/03 03:51:56;;;;;;;0.45;0.32;;;3.70;74.00;;;;;;5112453;28;20108;-73
2021/05/03 03:54:22;;;;;;;0.55;0.32;;;3.70;74.10;;;;;;5077271;28;20126;-73
2021/05/03 03:56:48;;;;;;;0.35;0.30;;;3.70;74.10;;;;;;5112194;28;20043;-73
2021/05/03 03:59:15;;;;;;;0.32;0.30;;;3.70;74.10;;;;;;5112243;28;20515;-73
2021/05/03 04:01:42;;;;;;;0.30;0.30;;;3.70;74.20;;;;;;5093709;28;20036;-73
2021/05/03 04:04:15;;;;;;;0.88;0.50;;;3.70;74.20;;;;;;5094343;28;20062;-73
2021/05/03 04:06:50;;;;;;;0.90;0.60;;;3.70;74.20;;;;;;5095246;28;20032;-74
2021/05/03 04:09:26;;;;;;;0.65;0.43;;;3.70;74.40;;;;;;5095626;28;20120;-73
2021/05/03 04:12:22;;;;;;;0.77;0.70;;;3.70;74.30;;;;;;5093295;28;20096;-73
2021/05/03 04:22:59;;;;;;;1.23;0.65;;;4.10;73.70;;;;;;5095106;28;20047;-73
2021/05/03 04:25:32;;;;;;;1.60;1.00;;;4.10;73.50;;;;;;5096861;28;20381;-73
2021/05/03 04:27:58;;;;;;;1.50;0.90;;;4.20;73.40;;;;;;5111944;28;20050;-73
2021/05/03 04:30:24;;;;;;;2.10;1.10;;;4.20;73.30;;;;;;5111998;28;20401;-73
2021/05/03 04:32:50;;;;;;;1.55;1.02;;;4.30;73.30;;;;;;5112644;28;20446;-73
2021/05/03 04:35:16;;;;;;;1.63;1.08;;;4.40;73.30;;;;;;5094497;28;20112;-72
2021/05/03 04:37:41;;;;;;;1.30;0.93;;;4.40;73.20;;;;;;5093062;28;20072;-73
2021/05/03 04:40:08;;;;;;;1.42;0.90;;;4.50;73.20;;;;;;5092429;28;20115;-73
2021/05/03 04:42:33;;;;;;;1.45;0.98;;;4.50;73.10;;;;;;5092198;28;20367;-73
2021/05/03 04:44:59;;;;;;;1.40;0.90;;;4.60;73.10;;;;;;5114068;28;20035;-72
2021/05/03 04:47:25;;;;;;;1.65;0.90;;;4.60;73.00;;;;;;5097550;28;20043;-72
2021/05/03 04:49:51;;;;;;;1.85;1.08;;;4.70;73.00;;;;;;5115373;28;20043;-72
2021/05/03 04:52:16;;;;;;;1.30;0.90;;;4.70;72.90;;;;;;5115256;28;20071;-72
2021/05/03 04:54:42;;;;;;;1.52;1.02;;;4.70;72.90;;;;;;5096934;28;20035;-73
2021/05/03 04:57:08;;;;;;;1.42;1.08;;;4.80;72.90;;;;;;5095634;28;20120;-72
2021/05/03 04:59:33;;;;;;;1.23;0.80;;;4.80;72.90;;;;;;5115125;28;20032;-73
2021/05/03 05:01:59;;;;;;;1.58;0.90;;;4.80;72.80;;;;;;5079452;28;20055;-73
2021/05/03 05:04:25;;;;;;;1.15;0.73;;;4.90;72.90;;;;;;5079804;28;20118;-73
2021/05/03 05:06:52;;;;;;;1.00;0.90;;;5.00;72.80;;;;;;5114938;28;20158;-73
2021/05/03 05:09:18;;;;;;;1.55;1.00;;;5.00;72.80;;;;;;5114858;28;20378;-73
2021/05/03 05:11:43;;;;;;;2.38;0.93;;;5.00;72.80;;;;;;5114789;28;20097;-73
2021/05/03 05:14:09;;;;;;;1.30;0.90;;;5.00;72.70;;;;;;5096721;28;20039;-73
2021/05/03 05:16:35;;;;;;;1.50;1.00;;;5.10;72.80;;;;;;5094528;28;20044;-73
2021/05/03 05:19:01;;;;;;;1.08;0.70;;;5.10;72.80;;;;;;5097268;28;20036;-73
2021/05/03 05:21:26;;;;;;;2.05;1.20;;;5.10;72.80;;;;;;5096460;28;20040;-74
2021/05/03 05:23:53;;;;;;;1.38;0.80;;;5.20;72.90;;;;;;5115426;28;20032;-73
2021/05/03 05:26:19;;;;;;;1.55;1.00;;;5.20;72.90;;;;;;5097398;28;20028;-73
2021/05/03 05:28:45;;;;;;;3.25;1.38;;;5.20;72.90;;;;;;5114794;28;20032;-73
2021/05/03 05:31:10;;;;;;;2.70;1.30;;;5.20;72.90;;;;;;5078191;28;20032;-74
2021/05/03 05:33:36;;;;;;;2.60;1.40;;;5.30;73.00;;;;;;5096969;28;20047;-73
2021/05/03 05:36:02;;;;;;;3.05;1.23;;;5.30;73.00;;;;;;5079656;28;20863;-74
2021/05/03 05:38:28;;;;;;;3.08;1.40;;;5.30;73.00;;;;;;5114375;28;20046;-73
2021/05/03 05:40:54;;;;;;;1.83;0.95;;;5.30;72.90;;;;;;5096296;28;20485;-73
2021/05/03 05:43:20;;;;;;;1.88;1.00;;;5.40;73.00;;;;;;5096999;28;20127;-72
2021/05/03 05:45:46;;;;;;;1.55;1.10;;;5.30;72.90;;;;;;5079231;28;20035;-73
2021/05/03 05:48:11;;;;;;;1.63;1.00;;;5.40;73.50;;;;;;5077820;28;20135;-73
2021/05/03 05:50:37;;;;;;;1.38;0.95;;;5.50;72.90;;;;;;5114575;28;20067;-73
2021/05/03 05:53:03;;;;;;;1.52;1.20;;;5.40;72.80;;;;;;5079292;28;20086;-73
2021/05/03 05:55:29;;;;;;;1.80;1.10;;;5.50;72.80;;;;;;5114468;28;20396;-73
2021/05/03 05:57:54;;;;;;;1.33;1.00;;;5.60;72.90;;;;;;5096062;28;20062;-72
2021/05/03 06:00:20;;;;;;;2.35;1.20;;;5.60;72.80;;;;;;5096066;28;20050;-73
2021/05/03 06:02:46;;;;;;;1.45;0.93;;;5.60;72.70;;;;;;5094887;28;20036;-72
2021/05/03 06:05:12;;;;;;;2.03;1.00;;;5.60;72.70;;;;;;5077202;28;20044;-73
2021/05/03 06:07:38;;;;;;;1.45;0.85;;;5.60;72.70;;;;;;5095816;28;20035;-73
2021/05/03 06:10:05;;;;;;;2.28;1.10;;;5.80;72.80;;;;;;5113939;28;20433;-73
2021/05/03 06:12:31;;;;;;;1.98;0.90;;;5.80;72.80;;;;;;5094290;28;20047;-73
2021/05/03 06:14:56;;;;;;;1.40;0.93;;;5.80;72.70;;;;;;5096305;28;20047;-73
2021/05/03 06:17:22;;;;;;;1.73;1.08;;;5.80;72.70;;;;;;5113767;28;20134;-74
2021/05/03 06:19:48;;;;;;;1.63;0.88;;;5.90;72.70;;;;;;5062213;28;20036;-73
2021/05/03 06:22:14;;;;;;;1.23;0.90;;;5.90;72.60;;;;;;5094060;28;20490;-74
2021/05/03 06:24:41;;;;;;;1.15;0.80;;;6.00;72.60;;;;;;5114037;28;20065;-74
2021/05/03 06:27:07;;;;;;;1.30;0.90;;;6.00;72.50;;;;;;5079588;28;20118;-76
2021/05/03 06:29:33;;;;;;;1.02;0.90;;;6.00;72.40;;;;;;5078993;28;20036;-71
2021/05/03 06:31:59;;;;;;;1.25;0.90;;;6.20;72.40;;;;;;5113701;28;20042;-73
2021/05/03 06:34:29;;;;;;;2.60;1.08;;;6.20;72.30;;;;;;5113664;28;20565;-73
2021/05/03 06:36:56;;;;;;;0.90;0.70;;;6.30;72.90;;;;;;5095097;28;20075;-74
2021/05/03 06:39:22;;;;;;;1.10;0.70;;;6.40;72.20;;;;;;5094437;28;20527;-74
2021/05/03 06:41:49;;;;;;;0.90;0.68;;;6.50;72.10;;;;;;5093721;28;20127;-73
2021/05/03 06:44:15;;;;;;;1.52;0.70;;;6.60;72.00;;;;;;5095348;28;20039;-73
2021/05/03 06:46:41;;;;;;;1.48;0.80;;;6.60;72.40;;;;;;5094736;28;20458;-73
2021/05/03 06:49:06;;;;;;;0.90;0.70;;;6.70;71.70;;;;;;5095090;28;20071;-74
2021/05/03 06:51:32;;;;;;;1.08;0.80;;;6.80;71.60;;;;;;5113396;28;20078;-74
2021/05/03 06:53:58;;;;;;;1.15;0.90;;;6.80;71.40;;;;;;5113737;28;20044;-73
2021/05/03 06:56:24;;;;;;;1.50;1.08;;;6.90;71.30;;;;;;5095586;28;20040;-73
2021/05/03 06:58:50;;;;;;;1.00;0.80;;;7.00;71.20;;;;;;5113801;28;20043;-73
2021/05/03 07:01:16;;;;;;;1.55;0.80;;;7.10;71.20;;;;;;5113728;28;20032;-74
2021/05/03 07:03:43;;;;;;;1.52;0.95;;;7.10;71.00;;;;;;5113003;28;20031;-71
2021/05/03 07:06:10;;;;;;;1.48;0.73;;;7.20;71.00;;;;;;5077213;28;20078;-72
2021/05/03 07:08:36;;;;;;;1.30;0.88;;;7.20;70.90;;;;;;5113016;28;20119;-71
2021/05/03 07:11:09;;;;;;;0.82;0.65;;;7.30;70.90;;;;;;5094783;28;20075;-73
2021/05/03 07:13:36;;;;;;;0.77;0.70;;;7.40;70.70;;;;;;5095202;28;20043;-73
2021/05/03 07:16:02;;;;;;;1.00;0.80;;;7.50;70.60;;;;;;5113257;28;20088;-72
2021/05/03 07:18:27;;;;;;;1.13;0.73;;;7.50;70.40;;;;;;5094725;28;20556;-74
2021/05/03 07:20:53;;;;;;;0.77;0.77;;;7.60;70.40;;;;;;5113285;28;20044;-74
2021/05/03 07:23:19;;;;;;;1.23;0.88;;;7.70;70.30;;;;;;5113549;28;20036;-73
2021/05/03 07:25:44;;;;;;;1.63;0.82;;;7.80;70.20;;;;;;5113274;28;20462;-75
2021/05/03 07:28:10;;;;;;;1.75;1.08;;;7.90;70.00;;;;;;5077576;28;20116;-73
2021/05/03 07:30:36;;;;;;;1.42;1.00;;;8.00;69.90;;;;;;5113222;28;20035;-73
2021/05/03 07:33:01;;;;;;;1.77;1.05;;;8.10;69.80;;;;;;5112543;28;20043;-73
2021/05/03 07:35:27;;;;;;;2.10;1.00;;;8.20;69.70;;;;;;5112566;28;20405;-74
2021/05/03 07:37:53;;;;;;;1.40;1.00;;;8.40;69.60;;;;;;5077508;28;20052;-74
2021/05/03 07:40:19;;;;;;;1.60;0.98;;;8.30;69.40;;;;;;5112651;28;20059;-74
2021/05/03 07:42:44;;;;;;;1.83;1.20;;;8.50;69.50;;;;;;5113388;28;20047;-74
2021/05/03 07:45:14;;;;;;;1.67;1.10;;;8.60;69.20;;;;;;5093981;28;20036;-75
2021/05/03 07:47:39;;;;;;;2.00;1.20;;;8.70;69.10;;;;;;5077826;28;20434;-74
2021/05/03 07:50:06;;;;;;;2.05;1.30;;;8.80;69.50;;;;;;5094531;28;20048;-74
2021/05/03 07:52:32;;;;;;;2.58;1.50;;;9.00;68.70;;;;;;5112654;28;20058;-74
2021/05/03 07:54:59;;;;;;;2.65;1.60;;;9.10;68.60;;;;;;5076285;28;20516;-74
2021/05/03 07:57:27;;;;;;;3.42;1.80;;;9.20;68.50;;;;;;5113074;28;20044;-72
2021/05/03 07:59:53;;;;;;;2.90;1.80;;;9.50;68.30;;;;;;5094409;28;20480;-73
2021/05/03 08:02:18;;;;;;;3.10;1.70;;;9.70;68.00;;;;;;5094446;28;20116;-75
2021/05/03 08:04:44;;;;;;;3.13;1.83;;;9.90;67.80;;;;;;5094299;28;20116;-72
2021/05/03 08:07:10;;;;;;;2.85;1.65;;;10.10;67.50;;;;;;5077351;28;20130;-74
2021/05/03 08:09:37;;;;;;;3.22;1.85;;;10.40;67.40;;;;;;5093993;28;20108;-73
2021/05/03 08:12:03;;;;;;;3.47;1.98;;;10.50;67.10;;;;;;5112290;28;20052;-74
2021/05/03 08:14:29;;;;;;;3.22;2.03;;;10.60;66.80;;;;;;5093850;28;20063;-74
2021/05/03 08:17:00;;;;;;;2.90;1.80;;;10.80;66.70;;;;;;5092052;28;20129;-74
2021/05/03 08:19:26;;;;;;;4.47;2.17;;;10.80;66.70;;;;;;5096629;28;20130;-74
2021/05/03 08:21:52;;;;;;;3.72;2.35;;;11.00;66.70;;;;;;5115890;28;20133;-76
2021/05/03 08:24:18;;;;;;;4.82;2.63;;;11.20;66.40;;;;;;5116169;28;20067;-74
2021/05/03 08:26:44;;;;;;;4.03;2.53;;;11.20;66.20;;;;;;5115936;28;20047;-74
2021/05/03 08:29:10;;;;;;;4.07;2.63;;;11.40;66.20;;;;;;5115630;28;20046;-74
2021/05/03 08:31:36;;;;;;;4.65;2.70;;;11.40;66.20;;;;;;5080100;28;20133;-73
2021/05/03 08:34:02;;;;;;;5.18;2.42;;;11.50;66.00;;;;;;5098165;28;20044;-73
2021/05/03 08:36:27;;;;;;;3.92;2.33;;;11.70;65.90;;;;;;5061957;28;20071;-73
2021/05/03 08:38:53;;;;;;;2.78;1.67;;;11.80;65.80;;;;;;5115881;28;20484;-75
2021/05/03 08:41:19;;;;;;;3.20;1.98;;;11.90;65.60;;;;;;5096297;28;20064;-74
2021/05/03 08:43:47;;;;;;;2.95;1.98;;;12.00;65.60;;;;;;5115875;28;20032;-74
2021/05/03 08:46:25;;;;;;;3.40;2.05;;;12.10;65.60;;;;;;5097065;28;20400;-74
2021/05/03 08:49:01;;;;;;;3.90;2.50;;;12.20;65.70;;;;;;5082195;28;20047;-75
2021/05/03 08:51:33;;;;;;;4.13;2.30;;;12.30;65.70;;;;;;5099119;28;20063;-74
2021/05/03 08:54:23;;;;;;;4.00;2.40;;;12.20;65.90;;;;;;5095263;28;20530;-75
2021/05/03 08:56:45;;;;;;;3.75;2.45;;;12.30;65.90;;;;;;5115348;28;20047;-75
2021/05/03 08:59:13;;;;;;;4.07;2.42;;;12.50;65.80;;;;;;5117903;28;20073;-74
2021/05/03 09:01:45;;;;;;;5.90;2.90;;;12.50;65.60;;;;;;5099445;28;20044;-74
2021/05/03 09:04:10;;;;;;;;;;;12.60;65.40;;;;;;5099548;28;20031;-74
2021/05/03 09:06:36;;;;;;;3.72;2.13;;;12.70;65.40;;;;;;5097890;28;20387;-75
2021/05/03 09:09:05;;;;;;;3.67;2.20;;;12.70;65.40;;;;;;5080939;28;20031;-75
2021/05/03 09:11:33;;;;;;;3.80;2.40;;;12.70;65.30;;;;;;5078727;28;20497;-75
2021/05/03 09:14:07;;;;;;;3.80;2.50;;;12.90;65.30;;;;;;5078486;28;20051;-75
2021/05/03 09:16:33;;;;;;;3.17;2.30;;;13.10;65.10;;;;;;5064061;28;20043;-74
2021/05/03 09:19:01;;;;;;;4.05;2.58;;;13.10;65.00;;;;;;5115077;28;20118;-75
2021/05/03 09:21:31;;;;;;;3.58;2.35;;;13.00;64.90;;;;;;5098113;28;20036;-75
2021/05/03 09:24:22;;;;;;;4.38;2.38;;;13.20;64.90;;;;;;5080470;28;20391;-76
2021/05/03 09:27:05;;;;;;;4.50;2.00;;;13.10;64.80;;;;;;5081580;28;20048;-77
2021/05/03 09:29:45;;;;;;;3.45;2.30;;;13.50;64.80;;;;;;5100941;28;20047;-77
2021/05/03 09:32:13;;;;;;;5.65;2.03;;;13.60;64.40;;;;;;5080688;28;20413;-78
2021/05/03 09:34:43;;;;;;;4.50;2.80;;;13.70;64.30;;;;;;5096463;28;20044;-74
2021/05/03 09:37:20;;;;;;;2.65;1.92;;;13.80;64.30;;;;;;5114515;28;20088;-75
2021/05/03 09:39:54;;;;;;;3.40;2.30;;;13.80;64.20;;;;;;5079436;28;20116;-75
2021/05/03 09:42:21;;;;;;;3.33;2.20;;;13.80;64.10;;;;;;5094952;28;20040;-75
2021/05/03 09:45:01;;;;;;;2.55;1.92;;;13.90;64.20;;;;;;5096877;28;20428;-77
2021/05/03 09:47:28;;;;;;;2.60;1.88;;;14.20;63.90;;;;;;5098218;28;20055;-79
2021/05/03 09:49:54;;;;;;;3.13;2.17;;;14.30;63.60;;;;;;5098740;28;20108;-76
2021/05/03 09:52:19;;;;;;;2.80;1.90;;;14.30;63.50;;;;;;5096818;28;20401;-77
2021/05/03 09:54:45;;;;;;;3.78;1.92;;;14.30;63.50;;;;;;5098374;28;20039;-78
2021/05/03 09:57:11;;;;;;;3.05;2.10;;;14.40;63.60;;;;;;5063054;28;20113;-77
2021/05/03 09:59:41;;;;;;;2.38;1.88;;;14.40;63.40;;;;;;5079502;28;20123;-75
2021/05/03 10:02:24;;;;;;;2.70;1.90;;;14.40;63.20;;;;;;5095965;28;20070;-74
2021/05/03 10:04:57;;;;;;;3.00;2.00;;;14.40;63.40;;;;;;5116454;28;20085;-74
2021/05/03 10:07:24;;;;;;;3.00;2.25;;;14.40;63.20;;;;;;5117815;28;20035;-75
2021/05/03 10:09:59;;;;;;;5.40;2.60;;;14.40;63.30;;;;;;5084449;28;20070;-75
2021/05/03 10:12:26;;;;;;;3.47;2.05;;;14.30;63.20;;;;;;5101297;28;20039;-75
2021/05/03 10:14:53;;;;;;;2.95;2.00;;;14.30;63.40;;;;;;5118460;28;20062;-74
2021/05/03 10:17:20;;;;;;;3.53;2.25;;;14.40;63.30;;;;;;5099330;28;20404;-74
2021/05/03 10:19:48;;;;;;;2.92;1.92;;;14.30;63.10;;;;;;5097886;28;20048;-75
2021/05/03 10:22:19;;;;;;;2.53;1.80;;;14.40;63.10;;;;;;5117736;28;20085;-75
2021/05/03 10:24:49;;;;;;;3.65;2.20;;;14.60;63.00;;;;;;5099127;28;20043;-76
2021/05/03 10:27:17;;;;;;;5.63;2.35;;;14.60;62.60;;;;;;5087135;28;20177;-76
2021/05/03 10:29:44;;;;;;;4.13;2.67;;;14.70;62.30;;;;;;5120886;28;20042;-76
2021/05/03 10:32:13;;;;;;;3.10;2.30;;;14.70;62.10;;;;;;5106321;28;20047;-75
2021/05/03 10:34:42;;;;;;;3.22;2.28;;;14.60;62.00;;;;;;5085291;28;20039;-75
2021/05/03 10:37:45;;;;;;;3.42;2.28;;;14.50;61.90;;;;;;5118688;28;20040;-76
2021/05/03 10:40:46;;;;;;;3.42;2.33;;;14.60;62.00;;;;;;5098988;28;20047;-74
2021/05/03 10:43:14;;;;;;;3.55;2.42;;;14.70;61.90;;;;;;5101068;28;20061;-75
2021/05/03 10:46:51;;;;;;;2.90;1.98;;;14.80;61.70;;;;;;5095408;28;20039;-74
2021/05/03 10:48:37;;;;;;;4.03;2.15;;;14.80;61.60;;;;;;5098735;28;20401;-77
2021/05/03 10:51:07;;;;;;;4.10;2.65;;;14.90;61.30;;;;;;5080323;28;20032;-78
2021/05/03 10:53:38;;;;;;;4.22;2.80;;;14.90;61.00;;;;;;5095850;28;20054;-75
2021/05/03 10:56:06;;;;;;;4.05;2.80;;;14.80;60.80;;;;;;5118467;28;20039;-77
2021/05/03 10:59:05;;;;;;;3.45;2.22;;;14.80;61.00;;;;;;5103364;28;20401;-78
2021/05/03 11:02:08;;;;;;;3.85;2.20;;;14.70;60.80;;;;;;5104429;28;20039;-76
2021/05/03 11:04:36;;;;;;;4.20;2.45;;;14.80;61.00;;;;;;5120299;28;20051;-77
2021/05/03 11:07:03;;;;;;;3.60;2.50;;;14.90;60.80;;;;;;5104540;28;20051;-77
2021/05/03 11:09:35;;;;;;;4.25;2.60;;;14.90;60.40;;;;;;5114883;28;20078;-76
2021/05/03 11:12:22;;;;;;;3.97;2.10;;;15.00;60.10;;;;;;5105664;28;20070;-75
2021/05/03 11:15:09;;;;;;;2.72;2.00;;;14.90;60.20;;;;;;5089002;28;20501;-75
2021/05/03 11:17:34;;;;;;;3.22;2.10;;;14.90;60.00;;;;;;5112107;28;20051;-74
2021/05/03 11:20:06;;;;;;;3.80;2.20;;;14.90;60.00;;;;;;5089459;28;20046;-74
2021/05/03 11:22:45;;;;;;;4.32;2.25;;;14.80;60.00;;;;;;5089313;28;20130;-76
2021/05/03 11:25:13;;;;;;;3.17;2.05;;;14.80;59.90;;;;;;5104233;28;20488;-75
2021/05/03 11:30:38;;;;;;;2.80;2.00;;;15.00;59.50;;;;;;5101507;28;20051;-76
2021/05/03 11:33:11;;;;;;;3.22;2.00;;;14.90;59.20;;;;;;5108079;28;20361;-75
2021/05/03 11:35:53;;;;;;;5.43;2.40;;;15.00;58.90;;;;;;5123056;28;20118;-76
2021/05/03 11:38:48;;;;;;;2.63;1.95;;;14.80;58.70;;;;;;5086167;28;20048;-74
2021/05/03 11:41:18;;;;;;;3.03;1.65;;;14.90;58.80;;;;;;5115738;28;20063;-75
2021/05/03 11:44:12;;;;;;;3.05;2.08;;;15.00;58.70;;;;;;5097760;28;20027;-74
2021/05/03 11:46:36;;;;;;;2.47;1.70;;;15.00;58.70;;;;;;5113722;28;20043;-74
2021/05/03 11:49:19;;;;;;;2.13;1.60;;;15.20;58.60;;;;;;5113533;28;20489;-73
2021/05/03 11:51:48;;;;;;;3.05;1.90;;;15.10;58.30;;;;;;5115476;28;20062;-75
2021/05/03 11:54:31;;;;;;;2.22;1.70;;;15.20;58.30;;;;;;5100918;28;20035;-76
2021/05/03 11:57:02;;;;;;;2.30;1.85;;;15.20;58.20;;;;;;5104214;28;20069;-75
2021/05/03 11:59:29;;;;;;;2.97;1.95;;;15.20;58.00;;;;;;5123404;28;20044;-75
2021/05/03 12:02:12;;;;;;;2.70;1.90;;;15.20;57.90;;;;;;5129196;28;20055;-77
2021/05/03 12:04:41;;;;;;;3.20;2.28;;;15.30;57.50;;;;;;5107494;28;20050;-76
2021/05/03 12:07:18;;;;;;;2.17;1.60;;;15.30;57.30;;;;;;5099726;28;20134;-76
2021/05/03 12:09:46;;;;;;;2.40;1.73;;;15.30;57.40;;;;;;5118137;28;20048;-78
2021/05/03 12:12:13;;;;;;;2.28;1.70;;;15.20;57.40;;;;;;5100548;28;20124;-76
2021/05/03 12:14:43;;;;;;;2.58;1.70;;;15.00;57.50;;;;;;5097056;28;20135;-76
2021/05/03 12:17:23;;;;;;;2.45;1.95;;;15.00;57.80;;;;;;5080933;28;20456;-75
2021/05/03 12:19:53;;;;;;;3.45;2.30;;;15.00;57.60;;;;;;5099202;28;20455;-77
2021/05/03 12:22:20;;;;;;;3.03;2.00;;;15.00;57.50;;;;;;5117097;28;20538;-76
2021/05/03 12:24:47;;;;;;;3.05;1.83;;;14.90;57.50;;;;;;5097736;28;20488;-76
2021/05/03 12:27:14;;;;;;;2.17;1.75;;;15.00;57.50;;;;;;5116124;28;20481;-75
2021/05/03 12:29:46;;;;;;;1.85;1.50;;;15.10;57.40;;;;;;5116367;28;20071;-76
2021/05/03 12:32:16;;;;;;;2.22;1.73;;;15.10;57.30;;;;;;5116348;28;20054;-76
2021/05/03 12:34:45;;;;;;;2.60;1.90;;;15.20;57.10;;;;;;5098449;28;20040;-76
2021/05/03 12:37:14;;;;;;;2.92;1.67;;;15.10;57.00;;;;;;5081277;28;20050;-76
2021/05/03 12:40:05;;;;;;;2.17;1.40;;;15.00;57.20;;;;;;5109222;28;20068;-76
2021/05/03 12:42:34;;;;;;;2.40;1.80;;;15.00;57.40;;;;;;5109596;28;20035;-77
2021/05/03 12:45:04;;;;;;;2.67;1.80;;;15.00;57.30;;;;;;5078729;28;20857;-76
2021/05/03 12:53:08;;;;;;;2.08;1.50;;;15.00;57.30;;;;;;5103595;28;20047;-77
2021/05/03 12:55:58;;;;;;;3.05;2.00;;;15.10;57.30;;;;;;5080381;28;20040;-77
2021/05/03 12:58:35;;;;;;;2.28;1.80;;;15.30;56.80;;;;;;5110021;28;20036;-77
2021/05/03 13:03:51;;;;;;;1.95;1.50;;;15.30;56.60;;;;;;5098878;28;20101;-76
2021/05/03 13:06:28;;;;;;;1.95;1.50;;;15.30;56.40;;;;;;5097795;28;20120;-76
2021/05/03 13:29:11;;;;;;;1.63;1.23;;;15.60;55.90;;;;;;5102655;28;20124;-78
2021/05/03 13:31:40;;;;;;;1.75;1.48;;;15.80;55.70;;;;;;5084875;28;20558;-79
2021/05/03 13:34:08;;;;;;;2.13;1.60;;;15.80;55.40;;;;;;5118533;28;20053;-76
2021/05/03 13:36:34;;;;;;;2.35;1.58;;;15.60;55.30;;;;;;5098491;28;20372;-77
2021/05/03 13:39:00;;;;;;;1.80;1.50;;;15.60;55.20;;;;;;5113917;28;20062;-74